createdAt,value
2017-12-14T00:01:47.480Z,7.10
2017-12-14T00:04:14.937Z,6.70
2017-12-14T00:06:42.413Z,6.80
2017-12-14T00:09:09.868Z,6.20
2017-12-14T00:11:37.341Z,6.63
2017-12-14T00:14:04.797Z,7.10
2017-12-14T00:16:32.268Z,6.87
2017-12-14T00:18:59.724Z,6.87
2017-12-14T00:21:27.212Z,6.87
2017-12-14T00:23:54.677Z,8.13
2017-12-14T00:26:22.148Z,7.33
2017-12-14T00:28:49.605Z,7.20
2017-12-14T00:31:17.077Z,7.10
2017-12-14T00:33:44.537Z,7.30
2017-12-14T00:36:12.013Z,7.20
2017-12-14T00:38:39.469Z,7.10
2017-12-14T00:41:06.953Z,7.33
2017-12-14T00:43:34.412Z,7.23
2017-12-14T00:46:01.889Z,9.17
2017-12-14T00:48:29.340Z,7.63
2017-12-14T00:50:56.812Z,7.30
2017-12-14T00:53:24.260Z,7.33
2017-12-14T00:55:51.880Z,7.13
2017-12-14T00:58:19.338Z,6.77
2017-12-14T01:00:46.814Z,7.87
2017-12-14T01:03:14.274Z,7.30
2017-12-14T01:05:41.757Z,7.07
2017-12-14T01:08:09.208Z,6.67
2017-12-14T01:10:36.681Z,6.80
2017-12-14T01:13:04.141Z,6.87
2017-12-14T01:15:31.620Z,7.93
2017-12-14T01:17:59.074Z,7.00
2017-12-14T01:20:26.524Z,6.30
2017-12-14T01:22:54.044Z,6.30
2017-12-14T01:25:21.499Z,6.33
2017-12-14T01:27:48.970Z,6.40
2017-12-14T01:30:16.430Z,6.70
2017-12-14T01:32:43.912Z,6.50
2017-12-14T01:35:11.368Z,6.53
2017-12-14T01:37:38.841Z,6.23
2017-12-14T01:40:06.347Z,6.30
2017-12-14T01:42:33.821Z,6.13
2017-12-14T01:45:01.362Z,6.20
2017-12-14T01:47:28.851Z,6.37
2017-12-14T01:49:56.309Z,6.27
2017-12-14T01:52:23.791Z,6.20
2017-12-14T01:54:51.295Z,6.40
2017-12-14T01:57:18.772Z,5.87
2017-12-14T01:59:46.229Z,6.20
2017-12-14T02:02:13.704Z,6.17
2017-12-14T02:04:41.161Z,6.13
2017-12-14T02:07:08.639Z,5.93
2017-12-14T02:09:36.097Z,5.97
2017-12-14T02:12:03.565Z,6.00
2017-12-14T02:14:31.020Z,5.90
2017-12-14T02:16:58.477Z,6.47
2017-12-14T02:19:27.032Z,5.80
2017-12-14T02:21:54.490Z,5.97
2017-12-14T02:24:21.956Z,6.03
2017-12-14T02:26:49.413Z,6.03
2017-12-14T02:29:16.894Z,6.53
2017-12-14T02:31:44.361Z,6.07
2017-12-14T02:34:11.837Z,5.87
2017-12-14T02:36:39.293Z,5.30
2017-12-14T02:39:06.769Z,5.10
2017-12-14T02:41:34.318Z,5.30
2017-12-14T02:44:01.878Z,6.23
2017-12-14T02:46:29.329Z,5.80
2017-12-14T02:48:56.800Z,5.20
2017-12-14T02:51:24.509Z,4.70
2017-12-14T02:53:51.985Z,5.30
2017-12-14T02:56:19.445Z,5.17
2017-12-14T02:58:46.924Z,5.33
2017-12-14T03:01:14.378Z,5.03
2017-12-14T03:03:41.854Z,5.80
2017-12-14T03:06:09.309Z,5.17
2017-12-14T03:08:36.860Z,4.93
2017-12-14T03:11:04.313Z,5.20
2017-12-14T03:13:31.790Z,5.27
2017-12-14T03:15:59.264Z,4.90
2017-12-14T03:18:26.741Z,4.90
2017-12-14T03:20:54.197Z,4.70
2017-12-14T03:23:21.664Z,5.13
2017-12-14T03:25:49.120Z,4.50
2017-12-14T03:28:16.593Z,4.20
2017-12-14T03:30:44.049Z,4.17
2017-12-14T03:33:11.521Z,4.37
2017-12-14T03:35:38.981Z,4.13
2017-12-14T03:38:06.457Z,4.50
2017-12-14T03:40:33.908Z,4.20
2017-12-14T03:43:01.382Z,9.83
2017-12-14T03:45:28.832Z,4.10
2017-12-14T03:47:56.301Z,4.67
2017-12-14T03:50:23.752Z,4.53
2017-12-14T03:52:51.229Z,6.00
2017-12-14T03:55:18.689Z,4.37
2017-12-14T03:57:46.165Z,4.43
2017-12-14T04:00:13.828Z,4.00
2017-12-14T04:02:41.307Z,3.90
2017-12-14T04:05:08.765Z,4.97
2017-12-14T04:07:36.233Z,4.63
2017-12-14T04:10:03.701Z,4.30
2017-12-14T04:12:31.185Z,4.70
2017-12-14T04:14:58.641Z,4.07
2017-12-14T04:17:26.097Z,4.00
2017-12-14T04:19:53.564Z,4.70
2017-12-14T04:22:21.021Z,4.17
2017-12-14T04:24:48.488Z,4.43
2017-12-14T04:27:15.944Z,4.00
2017-12-14T04:29:43.411Z,4.43
2017-12-14T04:32:10.869Z,4.23
2017-12-14T04:34:38.345Z,4.00
2017-12-14T04:37:05.805Z,3.70
2017-12-14T04:39:33.273Z,3.70
2017-12-14T04:42:00.749Z,3.70
2017-12-14T04:44:28.220Z,3.70
2017-12-14T04:46:55.681Z,4.33
2017-12-14T04:49:23.161Z,3.77
2017-12-14T04:51:50.613Z,3.90
2017-12-14T04:54:18.097Z,4.23
2017-12-14T04:56:45.548Z,3.97
2017-12-14T04:59:13.058Z,3.60
2017-12-14T05:01:40.517Z,4.13
2017-12-14T05:04:07.993Z,3.93
2017-12-14T05:06:35.468Z,3.93
2017-12-14T05:09:02.948Z,3.60
2017-12-14T05:11:30.425Z,3.50
2017-12-14T05:13:57.896Z,3.50
2017-12-14T05:16:25.361Z,3.80
2017-12-14T05:18:52.833Z,3.93
2017-12-14T05:21:20.305Z,3.73
2017-12-14T05:23:47.789Z,4.03
2017-12-14T05:26:15.252Z,3.53
2017-12-14T05:28:42.705Z,3.97
2017-12-14T05:31:10.206Z,3.53
2017-12-14T05:33:37.669Z,3.63
2017-12-14T05:36:05.138Z,3.73
2017-12-14T05:38:32.600Z,4.20
2017-12-14T05:41:00.069Z,4.30
2017-12-14T05:43:27.572Z,4.00
2017-12-14T05:45:55.077Z,3.60
2017-12-14T05:48:22.537Z,4.23
2017-12-14T05:50:50.822Z,4.20
2017-12-14T05:53:18.281Z,3.70
2017-12-14T05:55:45.756Z,3.87
2017-12-14T05:58:13.213Z,4.00
2017-12-14T06:00:40.681Z,4.57
2017-12-14T06:03:08.176Z,4.23
2017-12-14T06:05:35.645Z,3.97
2017-12-14T06:08:03.097Z,4.13
2017-12-14T06:10:30.568Z,3.70
2017-12-14T06:12:58.021Z,4.10
2017-12-14T06:15:25.497Z,4.50
2017-12-14T06:17:52.952Z,4.23
2017-12-14T06:20:20.425Z,3.70
2017-12-14T06:22:47.884Z,4.73
2017-12-14T06:25:15.366Z,3.80
2017-12-14T06:27:42.825Z,3.77
2017-12-14T06:30:10.297Z,3.70
2017-12-14T06:32:37.756Z,3.93
2017-12-14T06:35:05.232Z,3.70
2017-12-14T06:37:32.688Z,4.17
2017-12-14T06:44:54.206Z,5.82
2017-12-14T06:49:48.682Z,5.80
2017-12-14T06:52:16.140Z,6.70
